Flight Track Log - Related Links

Times and Time Zones

All times are in EDT time to prevent confusion due to time zone crossing. See the N70AG flight status page for this flight to view local times or setup timezone preferences in your user account.

Time Position Orientation Groundspeed Altitude Reporting Facility
EDT Latitude Longitude Course Direction KTS MPH feet Rate Location/Type
Thu 02:58:02 PM 37.9000 -121.2667 154° Southeast 162 186 1,500  Level Northern Cal TRACON
Thu 02:59:02 PM 37.8833 -121.3167 247° West 263 303 4,300 3,400 Climbing Northern Cal TRACON
Thu 03:00:02 PM 37.8000 -121.2833 162° South 307 353 8,300 3,350 Climbing Northern Cal TRACON
Thu 03:01:02 PM 37.7167 -121.2333 155° Southeast 349 402 11,000 2,350 Climbing Northern Cal TRACON
Thu 03:02:02 PM 37.6167 -121.1667 152° Southeast 407 468 13,000 2,150 Climbing Northern Cal TRACON
Thu 03:03:00 PM 37.3404 -120.7725 154° Southeast  Level Estimated
Thu 03:03:02 PM 37.5167 -121.1000 152° Southeast 414 476 15,300  Level Northern Cal TRACON
Thu 03:05:21 PM 37.2817 -120.9606 155° Southeast 448 516 21,000 2,478 Climbing Oakland Center
Thu 03:06:23 PM 37.1650 -120.8908 155° Southeast 461 531 23,600 2,585 Climbing Oakland Center
Thu 03:07:24 PM 37.0183 -120.7986 153° Southeast 490 564 26,300 1,659 Climbing Oakland Center
Thu 03:08:26 PM 36.8917 -120.7228 154° Southeast 504 580 27,000 1,024 Climbing Oakland Center
Thu 03:09:27 PM 36.7667 -120.6492 155° Southeast 507 583 28,400 2,000 Climbing Oakland Center
Thu 03:10:29 PM 36.6428 -120.5722 154° Southeast 500 575 31,100 2,244 Climbing Oakland Center
Thu 03:11:30 PM 36.5183 -120.4975 154° Southeast 498 573 33,000 1,073 Climbing Oakland Center
Thu 03:12:32 PM 36.4014 -120.4000 146° Southeast 507 583 33,300 968 Climbing Oakland Center
Thu 03:13:34 PM 36.2944 -120.2722 136° Southeast 530 610 35,000 829 Climbing Oakland Center
Thu 03:14:35 PM 36.1783 -120.1556 141° Southeast 536 617 35,000  Level Oakland Center
Thu 03:15:37 PM 36.0072 -120.0564 155° Southeast 566 651 35,000  Level Oakland Center
Thu 03:16:38 PM 35.8625 -119.9747 155° Southeast 567 652 35,000  Level Oakland Center
Thu 03:17:40 PM 35.7186 -119.8956 156° South 562 647 35,000  Level Oakland Center
Thu 03:18:42 PM 35.5736 -119.8158 156° South 565 650 35,000  Level Oakland Center
Thu 03:18:42 PM 35.5736 -119.8158 156° South 562 647 35,000  Level Los Angeles Center
Thu 03:19:46 PM 35.4286 -119.7361 156° South 565 650 35,000  Level Los Angeles Center
Thu 03:20:46 PM 35.2847 -119.6561 156° South 563 648 35,000  Level Los Angeles Center
Thu 03:21:48 PM 35.1556 -119.5556 148° Southeast 551 634 35,000  Level Los Angeles Center
Thu 03:22:50 PM 35.0297 -119.4472 145° Southeast 550 633 35,000  Level Los Angeles Center
Thu 03:23:52 PM 34.8794 -119.3186 145° Southeast 550 633 35,000  Level Los Angeles Center
Thu 03:24:55 PM 34.7536 -119.2144 146° Southeast 548 631 35,000  Level Los Angeles Center
Thu 03:25:58 PM 34.6314 -119.1131 146° Southeast 544 626 35,000  Level Los Angeles Center
Thu 03:26:59 PM 34.5150 -119.0147 145° Southeast 540 621 35,000  Level Los Angeles Center
Thu 03:28:01 PM 34.3658 -118.8900 145° Southeast 543 625 35,000 -629 Level Los Angeles Center
Thu 03:29:03 PM 34.2514 -118.7719 140° Southeast 542 624 33,700 -1,210 Descending Los Angeles Center
Thu 03:30:05 PM 34.1397 -118.6508 138° Southeast 539 620 32,500 -1,065 Descending Los Angeles Center
Thu 03:31:07 PM 34.0275 -118.5328 139° Southeast 537 618 31,500 -1,403 Descending Los Angeles Center
Thu 03:32:09 PM 33.9233 -118.4172 137° Southeast 507 583 29,600 -1,920 Descending Los Angeles Center
Thu 03:33:12 PM 33.8303 -118.2961 133° Southeast 481 554 27,500 -1,968 Descending Los Angeles Center
Thu 03:34:14 PM 33.7369 -118.1797 134° Southeast 460 529 25,500 -1,694 Descending Los Angeles Center
Thu 03:35:16 PM 33.6522 -118.0722 133° Southeast 443 510 24,000 -726 Descending Los Angeles Center
Thu 03:36:18 PM 33.5517 -117.9453 134° Southeast 439 505 24,000 -194 Level Los Angeles Center
Thu 03:37:20 PM 33.4681 -117.8408 134° Southeast 435 501 23,600 -1,306 Descending Los Angeles Center
Thu 03:38:22 PM 33.3858 -117.7367 133° Southeast 431 496 21,300 -2,177 Descending Los Angeles Center
Thu 03:39:24 PM 33.3078 -117.6389 134° Southeast 411 473 19,100 -2,316 Descending Los Angeles Center
Thu 03:40:16 PM 33.2333 -117.5500 135° Southeast 397 457 16,900 -2,288 Descending Southern California TRACON
Thu 03:41:22 PM 33.1333 -117.4667 145° Southeast 383 441 14,600 -2,000 Descending Southern California TRACON
Thu 03:42:22 PM 33.0500 -117.4000 146° Southeast 357 411 12,700 -1,650 Descending Southern California TRACON
Thu 03:43:22 PM 32.9667 -117.3333 146° Southeast 324 373 11,300 -1,500 Descending Southern California TRACON
Thu 03:44:22 PM 32.9000 -117.2833 148° Southeast 313 360 9,700 -1,300 Descending Southern California TRACON
Thu 03:45:22 PM 32.8333 -117.2167 140° Southeast 295 339 8,700 -900 Descending Southern California TRACON
Thu 03:46:22 PM 32.8000 -117.1500 121° Southeast 271 312 7,900 -867 Descending Southern California TRACON
Thu 03:46:52 PM 32.7892 -117.1167 111° Southeast 264 304 7,400 -900 Descending Los Angeles Center
Thu 03:47:22 PM 32.7833 -117.0667 98° East 252 290 7,000 -667 Descending Southern California TRACON
Thu 03:48:22 PM 32.7667 -116.9833 103° East 233 268 6,400 -730 Descending Southern California TRACON
Thu 03:49:17 PM 32.7500 -116.9333 112° Southeast 208 239 5,600 -700 Descending Southern California TRACON
Thu 03:50:22 PM 32.7167 -116.8667 121° Southeast 203 234 5,000 -466 Descending Southern California TRACON
Thu 03:51:00 PM 32.6917 -116.8694 185° South 210 242 4,800 -595 Descending Los Angeles Center
Thu 03:52:23 PM 32.6667 -116.9333 245° Southwest 175 201 3,800 -587 Descending Southern California TRACON
Thu 03:53:23 PM 32.6833 -117.0000 287° West 166 191 3,400 -650 Descending Southern California TRACON
Thu 03:54:23 PM 32.7000 -117.0500 292° West 170 196 2,500 -900 Descending Southern California TRACON
Thu 03:55:23 PM 32.7167 -117.1000 292° West 161 185 1,600 -889 Descending Southern California TRACON
Thu 03:56:11 PM 32.7211 -117.1342 279° West 157 181 900 -655 Descending Los Angeles Center
Thu 03:57:13 PM 32.7317 -117.1756 287° West 144 166 400 -484 Descending Los Angeles Center

Login

Don't have an account? Register now (free) for customized features, flight alerts, and more!